Linda — OJML — position and weather

sailwx.info

Track history (hours):
 
Tides and Currents Weather Stations Pressure Air Temp Water Temp Dewpoint Dewpoint Depression Visibility Wind Speed Wind Dir Waves Ship Positions

Linda

Last reported at 2018-Jan-20 09:34 UTC. Time now 2018-Jan-21 16:48 UTC.
Position N 59°32' E 022°46'.

Length 141 m; draft 7.7 m.

Type: Ship (hazmat cat A). MMSI: 230984000.

Date/timePositionNaut miles runAvg speedWind from/ knotsBaromVisibWave heightAir tempDewpointWater temp
2018-Jan-20 09:34N 59°32' E 022°46'111.6
2018-Jan-20 09:30N 59°33' E 022°47'611.3
2018-Jan-20 09:01N 59°34' E 022°58'611.4
2018-Jan-20 08:30N 59°36' E 023°09'611.4
2018-Jan-20 08:00N 59°38' E 023°19'611.7
2018-Jan-20 07:30N 59°40' E 023°30'611.8
2018-Jan-20 07:00N 59°42' E 023°41'612.2
2018-Jan-20 06:30N 59°44' E 023°52'611.9
2018-Jan-20 06:00N 59°46' E 024°04'611.2
2018-Jan-20 05:27N 59°48' E 024°15'511.4
2018-Jan-20 05:00N 59°50' E 024°25'53 2.1
2018-Jan-19 04:13N 59°59' E 026°09'521.0
2018-Jan-19 03:59N 59°60' E 026°18'816.5
2018-Jan-19 03:30N 60°02' E 026°34'1019.6
2018-Jan-19 03:00N 60°00' E 026°53'714.8
2018-Jan-19 02:30N 60°01' E 027°07'917.5
2018-Jan-19 02:00N 60°05' E 027°23'917.0
2018-Jan-19 01:30N 60°10' E 027°37'816.3
2018-Jan-19 01:00N 60°11' E 027°53'917.8
2018-Jan-19 00:30N 60°09' E 028°11'917.5
2018-Jan-19 00:00N 60°05' E 028°26'917.3
2018-Jan-18 23:30N 60°03' E 028°43'1417.5
2018-Jan-18 22:43N 60°02' E 029°11'418.3
2018-Jan-18 22:30N 60°02' E 029°19'814.7
2018-Jan-18 21:55N 60°01' E 029°35'4 8.2
2018-Jan-18 21:28N 59°60' E 029°43'1 0.0
2018-Jan-18 07:11N 60°00' E 029°43'1 3.2
2018-Jan-18 06:58N 59°60' E 029°43'4 6.7
2018-Jan-18 06:27N 60°00' E 029°36'713.1
2018-Jan-18 05:56N 60°02' E 029°23'615.0
2018-Jan-18 05:30N 60°02' E 029°10'815.8
2018-Jan-18 05:00N 60°02' E 028°54'815.7
2018-Jan-18 04:30N 60°02' E 028°38'715.0
2018-Jan-18 04:00N 60°04' E 028°24'815.1
2018-Jan-18 03:30N 60°08' E 028°11'815.5
2018-Jan-18 03:00N 60°10' E 027°56'714.3
2018-Jan-18 02:30N 60°09' E 027°41'815.6
2018-Jan-18 02:00N 60°05' E 027°28'815.6
2018-Jan-18 01:30N 60°01' E 027°14'715.2
2018-Jan-18 01:00N 59°58' E 027°00'1515.2
2018-Jan-18 00:00N 59°58' E 026°30'113.7
2018-Jan-17 23:58N 59°58' E 026°29'  
2018-Jan-12 14:57N 51°21' E 003°11'0 0.0
2018-Jan-12 14:30N 51°21' E 003°11'0 0.0
2018-Jan-12 14:00N 51°21' E 003°11'0 0.0
2018-Jan-12 13:30N 51°21' E 003°11'2 3.7
2018-Jan-12 13:00N 51°23' E 003°10'714.9
2018-Jan-12 12:30N 51°23' E 002°58'917.2
2018-Jan-12 12:00N 51°22' E 002°45'510.9
2018-Jan-12 11:30N 51°22' E 002°36'5 9.1
2018-Jan-12 10:59N 51°26' E 002°32'815.9
2018-Jan-12 10:29N 51°33' E 002°37'7416.9
2018-Jan-12 06:05N 52°46' E 002°12'118.3
2018-Jan-12 06:01N 52°47' E 002°10'918.1
2018-Jan-12 05:30N 52°53' E 001°59'918.2
2018-Jan-12 05:01N 52°59' E 001°48'918.1
2018-Jan-12 04:30N 53°05' E 001°36'918.1
2018-Jan-12 04:00N 53°11' E 001°25'6017.7
2018-Jan-12 00:38N 53°57' E 000°22'217.8
2018-Jan-12 00:31N 53°59' E 000°20'918.0
2018-Jan-12 00:01N 54°05' E 000°09'918.1
2018-Jan-11 23:30N 54°12' W 000°01'918.0
2018-Jan-11 23:01N 54°19' W 000°12'917.9
2018-Jan-11 22:30N 54°25' W 000°22'30 3.1
2018-Jan-11 13:03N 54°42' W 001°04'012.7
2018-Jan-11 13:01N 54°42' W 001°04'612.0
2018-Jan-11 12:30N 54°45' W 000°54'711.9
2018-Jan-11 11:54N 54°48' W 000°43'31814.3
2018-Jan-10 13:37N 57°06' E 007°49'215.3
2018-Jan-10 13:29N 57°07' E 007°52'715.5
2018-Jan-10 13:00N 57°10' E 008°05'815.5
2018-Jan-10 12:29N 57°13' E 008°18'815.3
2018-Jan-10 11:58N 57°17' E 008°31'  
Track history (hours):
 
Tides and Currents Weather Stations Pressure Air Temp Water Temp Dewpoint Dewpoint Depression Visibility Wind Speed Wind Dir Waves Ship Positions

Linda

Last reported at 2018-Jan-20 09:34 UTC. Time now 2018-Jan-21 16:48 UTC.
Position N 59°32' E 022°46'.

Length 141 m; draft 7.7 m.

Type: Ship (hazmat cat A). MMSI: 230984000.

Date/timePositionNaut miles runAvg speedWind from/ knotsBaromVisibWave heightAir tempDewpointWater temp
2018-Jan-20 09:34N 59°32' E 022°46'111.6
2018-Jan-20 09:30N 59°33' E 022°47'611.3
2018-Jan-20 09:01N 59°34' E 022°58'611.4
2018-Jan-20 08:30N 59°36' E 023°09'611.4
2018-Jan-20 08:00N 59°38' E 023°19'611.7
2018-Jan-20 07:30N 59°40' E 023°30'611.8
2018-Jan-20 07:00N 59°42' E 023°41'612.2
2018-Jan-20 06:30N 59°44' E 023°52'611.9
2018-Jan-20 06:00N 59°46' E 024°04'611.2
2018-Jan-20 05:27N 59°48' E 024°15'511.4
2018-Jan-20 05:00N 59°50' E 024°25'53 2.1
2018-Jan-19 04:13N 59°59' E 026°09'521.0
2018-Jan-19 03:59N 59°60' E 026°18'816.5
2018-Jan-19 03:30N 60°02' E 026°34'1019.6
2018-Jan-19 03:00N 60°00' E 026°53'714.8
2018-Jan-19 02:30N 60°01' E 027°07'917.5
2018-Jan-19 02:00N 60°05' E 027°23'917.0
2018-Jan-19 01:30N 60°10' E 027°37'816.3
2018-Jan-19 01:00N 60°11' E 027°53'917.8
2018-Jan-19 00:30N 60°09' E 028°11'917.5
2018-Jan-19 00:00N 60°05' E 028°26'917.3
2018-Jan-18 23:30N 60°03' E 028°43'1417.5
2018-Jan-18 22:43N 60°02' E 029°11'418.3
2018-Jan-18 22:30N 60°02' E 029°19'814.7
2018-Jan-18 21:55N 60°01' E 029°35'4 8.2
2018-Jan-18 21:28N 59°60' E 029°43'1 0.0
2018-Jan-18 07:11N 60°00' E 029°43'1 3.2
2018-Jan-18 06:58N 59°60' E 029°43'4 6.7
2018-Jan-18 06:27N 60°00' E 029°36'713.1
2018-Jan-18 05:56N 60°02' E 029°23'615.0
2018-Jan-18 05:30N 60°02' E 029°10'815.8
2018-Jan-18 05:00N 60°02' E 028°54'815.7
2018-Jan-18 04:30N 60°02' E 028°38'715.0
2018-Jan-18 04:00N 60°04' E 028°24'815.1
2018-Jan-18 03:30N 60°08' E 028°11'815.5
2018-Jan-18 03:00N 60°10' E 027°56'714.3
2018-Jan-18 02:30N 60°09' E 027°41'815.6
2018-Jan-18 02:00N 60°05' E 027°28'815.6
2018-Jan-18 01:30N 60°01' E 027°14'715.2
2018-Jan-18 01:00N 59°58' E 027°00'1515.2
2018-Jan-18 00:00N 59°58' E 026°30'113.7
2018-Jan-17 23:58N 59°58' E 026°29'  
2018-Jan-12 14:57N 51°21' E 003°11'0 0.0
2018-Jan-12 14:30N 51°21' E 003°11'0 0.0
2018-Jan-12 14:00N 51°21' E 003°11'0 0.0
2018-Jan-12 13:30N 51°21' E 003°11'2 3.7
2018-Jan-12 13:00N 51°23' E 003°10'714.9
2018-Jan-12 12:30N 51°23' E 002°58'917.2
2018-Jan-12 12:00N 51°22' E 002°45'510.9
2018-Jan-12 11:30N 51°22' E 002°36'5 9.1
2018-Jan-12 10:59N 51°26' E 002°32'815.9
2018-Jan-12 10:29N 51°33' E 002°37'7416.9
2018-Jan-12 06:05N 52°46' E 002°12'118.3
2018-Jan-12 06:01N 52°47' E 002°10'918.1
2018-Jan-12 05:30N 52°53' E 001°59'918.2
2018-Jan-12 05:01N 52°59' E 001°48'918.1
2018-Jan-12 04:30N 53°05' E 001°36'918.1
2018-Jan-12 04:00N 53°11' E 001°25'6017.7
2018-Jan-12 00:38N 53°57' E 000°22'217.8
2018-Jan-12 00:31N 53°59' E 000°20'918.0
2018-Jan-12 00:01N 54°05' E 000°09'918.1
2018-Jan-11 23:30N 54°12' W 000°01'918.0
2018-Jan-11 23:01N 54°19' W 000°12'917.9
2018-Jan-11 22:30N 54°25' W 000°22'30 3.1
2018-Jan-11 13:03N 54°42' W 001°04'012.7
2018-Jan-11 13:01N 54°42' W 001°04'612.0
2018-Jan-11 12:30N 54°45' W 000°54'711.9
2018-Jan-11 11:54N 54°48' W 000°43'31814.3
2018-Jan-10 13:37N 57°06' E 007°49'215.3
2018-Jan-10 13:29N 57°07' E 007°52'715.5
2018-Jan-10 13:00N 57°10' E 008°05'815.5
2018-Jan-10 12:29N 57°13' E 008°18'815.3
2018-Jan-10 11:58N 57°17' E 008°31'  

Dump ship's entire track history